sensor_id;sensor_type;location;lat;lon;timestamp;pressure;altitude;pressure_sealevel;temperature;humidity
5996;BME280;3026;53.612;7.278;2024-01-30T00:01:08;102529.72;;;7.30;100.00
5996;BME280;3026;53.612;7.278;2024-01-30T00:03:35;102529.03;;;7.26;100.00
5996;BME280;3026;53.612;7.278;2024-01-30T00:06:05;102518.28;;;7.25;100.00
5996;BME280;3026;53.612;7.278;2024-01-30T00:08:32;102526.66;;;7.22;100.00
5996;BME280;3026;53.612;7.278;2024-01-30T00:10:59;102524.06;;;7.20;100.00
5996;BME280;3026;53.612;7.278;2024-01-30T00:13:26;102518.84;;;7.17;100.00
5996;BME280;3026;53.612;7.278;2024-01-30T00:15:55;102525.34;;;7.15;100.00
5996;BME280;3026;53.612;7.278;2024-01-30T00:18:23;102521.13;;;7.11;100.00
5996;BME280;3026;53.612;7.278;2024-01-30T00:20:51;102520.38;;;7.09;100.00
5996;BME280;3026;53.612;7.278;2024-01-30T00:23:18;102527.78;;;7.07;100.00
5996;BME280;3026;53.612;7.278;2024-01-30T00:25:45;102521.66;;;7.03;100.00
5996;BME280;3026;53.612;7.278;2024-01-30T00:28:13;102526.47;;;6.99;100.00
5996;BME280;3026;53.612;7.278;2024-01-30T00:30:39;102512.34;;;6.94;100.00
5996;BME280;3026;53.612;7.278;2024-01-30T00:33:08;102520.69;;;6.91;100.00
5996;BME280;3026;53.612;7.278;2024-01-30T00:35:36;102518.22;;;6.88;100.00
5996;BME280;3026;53.612;7.278;2024-01-30T00:38:07;102524.72;;;6.86;100.00
5996;BME280;3026;53.612;7.278;2024-01-30T00:40:34;102525.81;;;6.83;100.00
5996;BME280;3026;53.612;7.278;2024-01-30T00:43:02;102516.88;;;6.81;100.00
5996;BME280;3026;53.612;7.278;2024-01-30T00:45:29;102512.56;;;6.79;100.00
5996;BME280;3026;53.612;7.278;2024-01-30T00:47:56;102508.22;;;6.76;100.00
5996;BME280;3026;53.612;7.278;2024-01-30T00:50:23;102515.78;;;6.71;100.00
5996;BME280;3026;53.612;7.278;2024-01-30T00:52:52;102512.31;;;6.69;100.00
5996;BME280;3026;53.612;7.278;2024-01-30T00:55:20;102517.00;;;6.67;100.00
5996;BME280;3026;53.612;7.278;2024-01-30T00:57:47;102510.81;;;6.65;100.00
5996;BME280;3026;53.612;7.278;2024-01-30T01:00:15;102502.91;;;6.62;100.00
5996;BME280;3026;53.612;7.278;2024-01-30T01:02:44;102494.97;;;6.59;100.00
5996;BME280;3026;53.612;7.278;2024-01-30T01:05:11;102496.91;;;6.57;100.00
5996;BME280;3026;53.612;7.278;2024-01-30T01:07:39;102495.41;;;6.53;100.00
5996;BME280;3026;53.612;7.278;2024-01-30T01:10:09;102491.06;;;6.50;100.00
5996;BME280;3026;53.612;7.278;2024-01-30T01:12:37;102490.38;;;6.47;100.00
5996;BME280;3026;53.612;7.278;2024-01-30T01:15:05;102488.66;;;6.46;100.00
5996;BME280;3026;53.612;7.278;2024-01-30T01:17:35;102485.19;;;6.43;100.00
5996;BME280;3026;53.612;7.278;2024-01-30T01:20:02;102483.47;;;6.42;100.00
5996;BME280;3026;53.612;7.278;2024-01-30T01:22:31;102481.72;;;6.41;100.00
5996;BME280;3026;53.612;7.278;2024-01-30T01:24:58;102480.00;;;6.40;100.00
5996;BME280;3026;53.612;7.278;2024-01-30T01:27:27;102479.13;;;6.40;100.00
5996;BME280;3026;53.612;7.278;2024-01-30T01:29:56;102473.03;;;6.36;100.00
5996;BME280;3026;53.612;7.278;2024-01-30T01:32:23;102458.72;;;6.34;100.00
5996;BME280;3026;53.612;7.278;2024-01-30T01:34:50;102456.00;;;6.34;100.00
5996;BME280;3026;53.612;7.278;2024-01-30T01:37:17;102448.09;;;6.31;100.00
5996;BME280;3026;53.612;7.278;2024-01-30T01:39:49;102460.69;;;6.32;100.00
5996;BME280;3026;53.612;7.278;2024-01-30T01:42:16;102451.78;;;6.30;100.00
5996;BME280;3026;53.612;7.278;2024-01-30T01:44:46;102450.06;;;6.29;100.00
5996;BME280;3026;53.612;7.278;2024-01-30T01:47:14;102450.06;;;6.29;100.00
5996;BME280;3026;53.612;7.278;2024-01-30T01:49:43;102449.31;;;6.27;100.00
5996;BME280;3026;53.612;7.278;2024-01-30T01:52:10;102445.84;;;6.25;100.00
5996;BME280;3026;53.612;7.278;2024-01-30T01:54:37;102445.03;;;6.23;100.00
5996;BME280;3026;53.612;7.278;2024-01-30T01:57:05;102449.72;;;6.21;100.00
5996;BME280;3026;53.612;7.278;2024-01-30T01:59:32;102450.69;;;6.20;100.00
5996;BME280;3026;53.612;7.278;2024-01-30T02:02:02;102450.91;;;6.17;100.00
5996;BME280;3026;53.612;7.278;2024-01-30T02:04:35;102436.59;;;6.15;100.00
5996;BME280;3026;53.612;7.278;2024-01-30T02:07:03;102443.94;;;6.13;100.00
5996;BME280;3026;53.612;7.278;2024-01-30T02:09:31;102447.63;;;6.12;100.00
5996;BME280;3026;53.612;7.278;2024-01-30T02:11:58;102446.75;;;6.11;100.00
5996;BME280;3026;53.612;7.278;2024-01-30T02:14:28;102450.53;;;6.09;100.00
5996;BME280;3026;53.612;7.278;2024-01-30T02:16:55;102446.09;;;6.08;100.00
5996;BME280;3026;53.612;7.278;2024-01-30T02:19:24;102446.09;;;6.08;100.00
5996;BME280;3026;53.612;7.278;2024-01-30T02:21:53;102448.81;;;6.08;100.00
5996;BME280;3026;53.612;7.278;2024-01-30T02:24:23;102450.66;;;6.07;100.00
5996;BME280;3026;53.612;7.278;2024-01-30T02:26:50;102445.25;;;6.07;100.00
5996;BME280;3026;53.612;7.278;2024-01-30T02:29:18;102446.09;;;6.08;100.00
5996;BME280;3026;53.612;7.278;2024-01-30T02:31:45;102442.41;;;6.09;100.00
5996;BME280;3026;53.612;7.278;2024-01-30T02:34:14;102433.31;;;6.10;100.00
5996;BME280;3026;53.612;7.278;2024-01-30T02:36:42;102439.59;;;6.10;100.00
5996;BME280;3026;53.612;7.278;2024-01-30T02:39:11;102438.53;;;6.13;100.00
5996;BME280;3026;53.612;7.278;2024-01-30T02:41:38;102434.88;;;6.14;100.00
5996;BME280;3026;53.612;7.278;2024-01-30T02:44:06;102425.66;;;6.17;100.00
5996;BME280;3026;53.612;7.278;2024-01-30T02:46:33;102425.53;;;6.18;100.00
5996;BME280;3026;53.612;7.278;2024-01-30T02:49:00;102418.19;;;6.20;100.00
5996;BME280;3026;53.612;7.278;2024-01-30T02:51:28;102415.59;;;6.19;100.00
5996;BME280;3026;53.612;7.278;2024-01-30T02:53:55;102409.28;;;6.18;100.00
5996;BME280;3026;53.612;7.278;2024-01-30T02:56:24;102407.56;;;6.17;100.00
5996;BME280;3026;53.612;7.278;2024-01-30T02:58:53;102409.28;;;6.18;100.00
5996;BME280;3026;53.612;7.278;2024-01-30T03:01:20;102405.59;;;6.19;100.00
5996;BME280;3026;53.612;7.278;2024-01-30T03:03:50;102398.47;;;6.18;100.00
5996;BME280;3026;53.612;7.278;2024-01-30T03:06:17;102387.72;;;6.17;100.00
5996;BME280;3026;53.612;7.278;2024-01-30T03:08:46;102379.72;;;6.15;100.00
5996;BME280;3026;53.612;7.278;2024-01-30T03:11:13;102377.88;;;6.16;100.00
5996;BME280;3026;53.612;7.278;2024-01-30T03:13:43;102360.75;;;6.15;100.00
5996;BME280;3026;53.612;7.278;2024-01-30T03:16:10;102353.63;;;6.14;100.00
5996;BME280;3026;53.612;7.278;2024-01-30T03:18:37;102356.31;;;6.14;100.00
5996;BME280;3026;53.612;7.278;2024-01-30T03:21:04;102350.00;;;6.13;100.00
5996;BME280;3026;53.612;7.278;2024-01-30T03:23:31;102346.44;;;6.13;100.00
5996;BME280;3026;53.612;7.278;2024-01-30T03:25:59;102342.78;;;6.14;100.00
5996;BME280;3026;53.612;7.278;2024-01-30T03:28:27;102342.78;;;6.14;100.00
5996;BME280;3026;53.612;7.278;2024-01-30T03:30:57;102347.22;;;6.15;100.00
5996;BME280;3026;53.612;7.278;2024-01-30T03:33:24;102342.66;;;6.16;100.00
5996;BME280;3026;53.612;7.278;2024-01-30T03:35:51;102364.22;;;6.17;100.00
5996;BME280;3026;53.612;7.278;2024-01-30T03:38:18;102369.66;;;6.17;100.00
5996;BME280;3026;53.612;7.278;2024-01-30T03:40:47;102371.38;;;6.18;100.00
5996;BME280;3026;53.612;7.278;2024-01-30T03:43:15;102371.38;;;6.18;100.00
5996;BME280;3026;53.612;7.278;2024-01-30T03:45:43;102371.25;;;6.20;100.00
5996;BME280;3026;53.612;7.278;2024-01-30T03:48:12;102372.03;;;6.22;100.00
5996;BME280;3026;53.612;7.278;2024-01-30T03:50:39;102380.81;;;6.25;100.00
5996;BME280;3026;53.612;7.278;2024-01-30T03:53:06;102368.78;;;6.29;100.00
5996;BME280;3026;53.612;7.278;2024-01-30T03:55:33;102363.13;;;6.32;100.00
5996;BME280;3026;53.612;7.278;2024-01-30T03:58:03;102361.84;;;6.38;100.00
5996;BME280;3026;53.612;7.278;2024-01-30T04:00:30;102366.94;;;6.42;100.00
5996;BME280;3026;53.612;7.278;2024-01-30T04:02:57;102360.31;;;6.47;100.00
5996;BME280;3026;53.612;7.278;2024-01-30T04:05:26;102358.38;;;6.49;100.00
5996;BME280;3026;53.612;7.278;2024-01-30T04:07:53;102349.28;;;6.50;100.00
5996;BME280;3026;53.612;7.278;2024-01-30T04:10:20;102343.88;;;6.50;100.00
5996;BME280;3026;53.612;7.278;2024-01-30T04:12:48;102342.13;;;6.49;100.00
5996;BME280;3026;53.612;7.278;2024-01-30T04:15:15;102342.13;;;6.49;100.00
5996;BME280;3026;53.612;7.278;2024-01-30T04:17:43;102344.06;;;6.47;100.00
5996;BME280;3026;53.612;7.278;2024-01-30T04:20:13;102364.00;;;6.46;100.00
5996;BME280;3026;53.612;7.278;2024-01-30T04:22:44;102368.66;;;6.43;100.00
5996;BME280;3026;53.612;7.278;2024-01-30T04:25:13;102359.78;;;6.41;100.00
5996;BME280;3026;53.612;7.278;2024-01-30T04:27:41;102345.38;;;6.41;100.00
5996;BME280;3026;53.612;7.278;2024-01-30T04:30:09;102344.50;;;6.40;100.00
5996;BME280;3026;53.612;7.278;2024-01-30T04:32:39;102351.88;;;6.38;100.00
5996;BME280;3026;53.612;7.278;2024-01-30T04:35:06;102342.78;;;6.39;100.00
5996;BME280;3026;53.612;7.278;2024-01-30T04:37:33;102330.22;;;6.38;100.00
5996;BME280;3026;53.612;7.278;2024-01-30T04:40:02;102330.22;;;6.38;100.00
5996;BME280;3026;53.612;7.278;2024-01-30T04:42:30;102326.53;;;6.39;100.00
5996;BME280;3026;53.612;7.278;2024-01-30T04:44:58;102326.53;;;6.39;100.00
5996;BME280;3026;53.612;7.278;2024-01-30T04:47:25;102312.97;;;6.39;100.00
5996;BME280;3026;53.612;7.278;2024-01-30T04:49:52;102303.88;;;6.40;100.00
5996;BME280;3026;53.612;7.278;2024-01-30T04:52:19;102301.16;;;6.40;100.00
5996;BME280;3026;53.612;7.278;2024-01-30T04:54:46;102293.03;;;6.40;100.00
5996;BME280;3026;53.612;7.278;2024-01-30T04:57:15;102267.56;;;6.43;100.00
5996;BME280;3026;53.612;7.278;2024-01-30T04:59:43;102275.56;;;6.44;100.00
5996;BME280;3026;53.612;7.278;2024-01-30T05:02:10;102276.31;;;6.47;100.00
5996;BME280;3026;53.612;7.278;2024-01-30T05:04:37;102285.22;;;6.49;100.00
5996;BME280;3026;53.612;7.278;2024-01-30T05:07:04;102300.28;;;6.53;100.00
5996;BME280;3026;53.612;7.278;2024-01-30T05:09:31;102318.16;;;6.55;100.00
5996;BME280;3026;53.612;7.278;2024-01-30T05:11:59;102315.31;;;6.57;100.00
5996;BME280;3026;53.612;7.278;2024-01-30T05:14:28;102316.06;;;6.59;100.00
5996;BME280;3026;53.612;7.278;2024-01-30T05:16:57;102303.06;;;6.64;100.00
5996;BME280;3026;53.612;7.278;2024-01-30T05:19:24;102316.41;;;6.67;100.00
5996;BME280;3026;53.612;7.278;2024-01-30T05:21:51;102309.75;;;6.71;100.00
5996;BME280;3026;53.612;7.278;2024-01-30T05:24:18;102302.41;;;6.73;100.00
5996;BME280;3026;53.612;7.278;2024-01-30T05:26:45;102295.78;;;6.77;100.00
5996;BME280;3026;53.612;7.278;2024-01-30T05:29:13;102289.38;;;6.78;100.00
5996;BME280;3026;53.612;7.278;2024-01-30T05:31:43;102285.69;;;6.79;100.00
5996;BME280;3026;53.612;7.278;2024-01-30T05:34:10;102296.53;;;6.79;100.00
5996;BME280;3026;53.612;7.278;2024-01-30T05:36:38;102287.41;;;6.80;100.00
5996;BME280;3026;53.612;7.278;2024-01-30T05:39:05;102284.69;;;6.80;100.00
5996;BME280;3026;53.612;7.278;2024-01-30T05:41:33;102280.25;;;6.79;100.00
5996;BME280;3026;53.612;7.278;2024-01-30T05:44:00;102272.88;;;6.81;100.00
5996;BME280;3026;53.612;7.278;2024-01-30T05:46:27;102263.75;;;6.82;100.00
5996;BME280;3026;53.612;7.278;2024-01-30T05:48:56;102260.09;;;6.83;100.00
5996;BME280;3026;53.612;7.278;2024-01-30T05:51:23;102246.41;;;6.85;100.00
5996;BME280;3026;53.612;7.278;2024-01-30T05:53:51;102240.00;;;6.86;100.00
5996;BME280;3026;53.612;7.278;2024-01-30T05:56:18;102234.47;;;6.87;100.00
5996;BME280;3026;53.612;7.278;2024-01-30T05:58:45;102228.06;;;6.88;100.00
5996;BME280;3026;53.612;7.278;2024-01-30T06:01:15;102227.81;;;6.91;100.00
5996;BME280;3026;53.612;7.278;2024-01-30T06:03:43;102235.72;;;6.94;100.00
5996;BME280;3026;53.612;7.278;2024-01-30T06:06:13;102237.47;;;6.95;100.00
5996;BME280;3026;53.612;7.278;2024-01-30T06:08:40;102237.25;;;6.98;100.00
5996;BME280;3026;53.612;7.278;2024-01-30T06:11:10;102229.84;;;7.00;100.00
5996;BME280;3026;53.612;7.278;2024-01-30T06:13:37;102230.47;;;7.04;100.00
5996;BME280;3026;53.612;7.278;2024-01-30T06:16:05;102218.53;;;7.07;100.00
5996;BME280;3026;53.612;7.278;2024-01-30T06:18:36;102213.88;;;7.09;100.00
5996;BME280;3026;53.612;7.278;2024-01-30T06:21:04;102218.06;;;7.13;100.00
5996;BME280;3026;53.612;7.278;2024-01-30T06:23:37;102216.97;;;7.15;100.00
5996;BME280;3026;53.612;7.278;2024-01-30T06:26:06;102212.41;;;7.16;100.00
5996;BME280;3026;53.612;7.278;2024-01-30T06:28:33;102215.00;;;7.17;100.00
5996;BME280;3026;53.612;7.278;2024-01-30T06:31:02;102230.19;;;7.20;100.00
5996;BME280;3026;53.612;7.278;2024-01-30T06:33:30;102255.34;;;7.22;100.00
5996;BME280;3026;53.612;7.278;2024-01-30T06:35:57;102268.69;;;7.25;100.00
5996;BME280;3026;53.612;7.278;2024-01-30T06:38:24;102261.16;;;7.28;100.00
5996;BME280;3026;53.612;7.278;2024-01-30T06:40:53;102260.94;;;7.31;100.00
5996;BME280;3026;53.612;7.278;2024-01-30T06:43:22;102265.28;;;7.34;100.00
5996;BME280;3026;53.612;7.278;2024-01-30T06:45:49;102248.75;;;7.37;100.00
5996;BME280;3026;53.612;7.278;2024-01-30T06:48:17;102248.63;;;7.39;100.00
5996;BME280;3026;53.612;7.278;2024-01-30T06:50:44;102267.50;;;7.40;100.00
5996;BME280;3026;53.612;7.278;2024-01-30T06:53:13;102261.84;;;7.43;100.00
5996;BME280;3026;53.612;7.278;2024-01-30T06:55:40;102262.72;;;7.44;100.00
5996;BME280;3026;53.612;7.278;2024-01-30T06:58:09;102266.31;;;7.44;100.00
5996;BME280;3026;53.612;7.278;2024-01-30T07:00:36;102260.88;;;7.44;100.00
5996;BME280;3026;53.612;7.278;2024-01-30T07:03:04;102257.16;;;7.45;100.00
5996;BME280;3026;53.612;7.278;2024-01-30T07:05:31;102262.34;;;7.48;100.00
5996;BME280;3026;53.612;7.278;2024-01-30T07:08:00;102253.47;;;7.46;100.00
5996;BME280;3026;53.612;7.278;2024-01-30T07:10:27;102247.06;;;7.47;100.00
5996;BME280;3026;53.612;7.278;2024-01-30T07:12:55;102244.34;;;7.47;100.00
5996;BME280;3026;53.612;7.278;2024-01-30T07:15:23;102241.63;;;7.47;100.00
5996;BME280;3026;53.612;7.278;2024-01-30T07:17:52;102236.31;;;7.46;100.00
5996;BME280;3026;53.612;7.278;2024-01-30T07:20:19;102237.19;;;7.46;100.00
5996;BME280;3026;53.612;7.278;2024-01-30T07:22:46;102235.47;;;7.45;100.00
5996;BME280;3026;53.612;7.278;2024-01-30T07:25:17;102235.47;;;7.45;100.00
5996;BME280;3026;53.612;7.278;2024-01-30T07:27:44;102247.19;;;7.46;100.00
5996;BME280;3026;53.612;7.278;2024-01-30T07:30:13;102253.47;;;7.46;100.00
5996;BME280;3026;53.612;7.278;2024-01-30T07:32:44;102258.91;;;7.46;100.00
5996;BME280;3026;53.612;7.278;2024-01-30T07:35:11;102273.22;;;7.48;100.00
5996;BME280;3026;53.612;7.278;2024-01-30T07:37:38;102267.78;;;7.48;100.00
5996;BME280;3026;53.612;7.278;2024-01-30T07:40:07;102267.53;;;7.51;100.00
5996;BME280;3026;53.612;7.278;2024-01-30T07:42:34;102263.84;;;7.52;100.00
5996;BME280;3026;53.612;7.278;2024-01-30T07:45:01;102266.47;;;7.54;100.00
5996;BME280;3026;53.612;7.278;2024-01-30T07:47:28;102263.63;;;7.55;100.00
5996;BME280;3026;53.612;7.278;2024-01-30T07:49:57;102262.53;;;7.58;100.00
5996;BME280;3026;53.612;7.278;2024-01-30T07:52:24;102244.25;;;7.60;100.00
5996;BME280;3026;53.612;7.278;2024-01-30T07:54:52;102253.25;;;7.60;100.00
5996;BME280;3026;53.612;7.278;2024-01-30T07:57:19;102227.84;;;7.61;100.00
5996;BME280;3026;53.612;7.278;2024-01-30T07:59:46;102210.56;;;7.63;100.00
5996;BME280;3026;53.612;7.278;2024-01-30T08:02:13;102225.88;;;7.64;100.00
5996;BME280;3026;53.612;7.278;2024-01-30T08:04:41;102230.34;;;7.65;100.00
5996;BME280;3026;53.612;7.278;2024-01-30T08:07:09;102239.22;;;7.67;100.00
5996;BME280;3026;53.612;7.278;2024-01-30T08:09:37;102255.53;;;7.67;100.00
5996;BME280;3026;53.612;7.278;2024-01-30T08:12:06;102256.38;;;7.67;100.00
5996;BME280;3026;53.612;7.278;2024-01-30T08:14:34;102258.00;;;7.70;100.00
5996;BME280;3026;53.612;7.278;2024-01-30T08:17:01;102275.00;;;7.72;100.00
5996;BME280;3026;53.612;7.278;2024-01-30T08:19:29;102276.75;;;7.73;100.00
5996;BME280;3026;53.612;7.278;2024-01-30T08:21:55;102281.97;;;7.76;100.00
5996;BME280;3026;53.612;7.278;2024-01-30T08:24:28;102286.28;;;7.78;100.00
5996;BME280;3026;53.612;7.278;2024-01-30T08:26:55;102279.75;;;7.81;100.00
5996;BME280;3026;53.612;7.278;2024-01-30T08:29:24;102276.03;;;7.82;100.00
5996;BME280;3026;53.612;7.278;2024-01-30T08:31:51;102286.66;;;7.85;100.00
5996;BME280;3026;53.612;7.278;2024-01-30T08:34:21;102287.38;;;7.87;100.00
5996;BME280;3026;53.612;7.278;2024-01-30T08:36:48;102279.25;;;7.87;100.00
5996;BME280;3026;53.612;7.278;2024-01-30T08:39:16;102263.72;;;7.89;100.00
5996;BME280;3026;53.612;7.278;2024-01-30T08:41:45;102274.47;;;7.90;100.00
5996;BME280;3026;53.612;7.278;2024-01-30T08:44:12;102276.06;;;7.93;100.00
5996;BME280;3026;53.612;7.278;2024-01-30T08:46:39;102277.78;;;7.94;100.00
5996;BME280;3026;53.612;7.278;2024-01-30T08:49:08;102275.94;;;7.95;100.00
5996;BME280;3026;53.612;7.278;2024-01-30T08:51:35;102266.53;;;7.99;100.00
5996;BME280;3026;53.612;7.278;2024-01-30T08:54:03;102275.47;;;8.01;100.00
5996;BME280;3026;53.612;7.278;2024-01-30T08:56:30;102276.06;;;8.04;100.00
5996;BME280;3026;53.612;7.278;2024-01-30T08:59:04;102274.09;;;8.06;100.00
5996;BME280;3026;53.612;7.278;2024-01-30T09:01:31;102278.41;;;8.09;100.00
5996;BME280;3026;53.612;7.278;2024-01-30T09:03:58;102268.19;;;8.12;100.00
5996;BME280;3026;53.612;7.278;2024-01-30T09:06:25;102280.53;;;8.16;100.00
5996;BME280;3026;53.612;7.278;2024-01-30T09:08:54;102284.00;;;8.18;100.00
5996;BME280;3026;53.612;7.278;2024-01-30T09:11:23;102284.63;;;8.22;100.00
5996;BME280;3026;53.612;7.278;2024-01-30T09:13:51;102282.53;;;8.26;100.00
5996;BME280;3026;53.612;7.278;2024-01-30T09:16:20;102285.97;;;8.28;100.00
5996;BME280;3026;53.612;7.278;2024-01-30T09:18:47;102286.59;;;8.31;100.00
5996;BME280;3026;53.612;7.278;2024-01-30T09:21:15;102298.88;;;8.37;100.00
5996;BME280;3026;53.612;7.278;2024-01-30T09:23:43;102291.47;;;8.39;100.00
5996;BME280;3026;53.612;7.278;2024-01-30T09:26:10;102296.66;;;8.42;100.00
5996;BME280;3026;53.612;7.278;2024-01-30T09:28:38;102290.94;;;8.45;100.00
5996;BME280;3026;53.612;7.278;2024-01-30T09:31:10;102290.72;;;8.48;100.00
5996;BME280;3026;53.612;7.278;2024-01-30T09:33:38;102290.47;;;8.51;100.00
5996;BME280;3026;53.612;7.278;2024-01-30T09:36:08;102290.22;;;8.54;100.00
5996;BME280;3026;53.612;7.278;2024-01-30T09:38:35;102295.44;;;8.57;100.00
5996;BME280;3026;53.612;7.278;2024-01-30T09:41:05;102287.13;;;8.59;100.00
5996;BME280;3026;53.612;7.278;2024-01-30T09:43:37;102289.47;;;8.63;100.00
5996;BME280;3026;53.612;7.278;2024-01-30T09:46:08;102293.78;;;8.66;100.00
5996;BME280;3026;53.612;7.278;2024-01-30T09:48:41;102290.72;;;8.70;100.00
5996;BME280;3026;53.612;7.278;2024-01-30T09:51:09;102285.88;;;8.74;100.00
5996;BME280;3026;53.612;7.278;2024-01-30T09:53:37;102283.75;;;8.77;100.00
5996;BME280;3026;53.612;7.278;2024-01-30T09:56:05;102289.72;;;8.83;100.00
5996;BME280;3026;53.612;7.278;2024-01-30T09:58:34;102285.88;;;8.85;100.00
5996;BME280;3026;53.612;7.278;2024-01-30T10:01:01;102291.19;;;8.87;100.00
5996;BME280;3026;53.612;7.278;2024-01-30T10:03:28;102297.13;;;8.92;100.00
5996;BME280;3026;53.612;7.278;2024-01-30T10:05:57;102284.97;;;8.96;100.00
5996;BME280;3026;53.612;7.278;2024-01-30T10:08:26;102294.59;;;9.00;100.00
5996;BME280;3026;53.612;7.278;2024-01-30T10:10:55;102284.47;;;9.02;100.00
5996;BME280;3026;53.612;7.278;2024-01-30T10:13:23;102285.94;;;9.06;100.00
5996;BME280;3026;53.612;7.278;2024-01-30T10:15:50;102286.28;;;9.13;100.00
5996;BME280;3026;53.612;7.278;2024-01-30T10:18:18;102283.19;;;9.17;100.00
5996;BME280;3026;53.612;7.278;2024-01-30T10:20:45;102288.97;;;9.24;100.00
5996;BME280;3026;53.612;7.278;2024-01-30T10:23:26;102290.34;;;9.29;100.00
5996;BME280;3026;53.612;7.278;2024-01-30T10:25:53;102289.66;;;9.37;100.00
5996;BME280;3026;53.612;7.278;2024-01-30T10:28:21;102288.44;;;9.41;100.00
5996;BME280;3026;53.612;7.278;2024-01-30T10:30:57;102285.03;;;9.49;100.00
5996;BME280;3026;53.612;7.278;2024-01-30T10:33:25;102288.38;;;9.52;100.00
5996;BME280;3026;53.612;7.278;2024-01-30T10:35:55;102283.53;;;9.56;100.00
5996;BME280;3026;53.612;7.278;2024-01-30T10:38:29;102290.72;;;9.57;100.00
5996;BME280;3026;53.612;7.278;2024-01-30T10:40:59;102282.25;;;9.60;100.00
5996;BME280;3026;53.612;7.278;2024-01-30T10:43:31;102272.84;;;9.64;100.00
5996;BME280;3026;53.612;7.278;2024-01-30T10:46:05;102272.59;;;9.67;100.00
5996;BME280;3026;53.612;7.278;2024-01-30T10:48:36;102268.72;;;9.70;100.00
5996;BME280;3026;53.612;7.278;2024-01-30T10:51:10;102267.59;;;9.72;100.00
5996;BME280;3026;53.612;7.278;2024-01-30T10:53:41;102265.34;;;9.77;100.00
5996;BME280;3026;53.612;7.278;2024-01-30T10:56:10;102265.81;;;9.82;100.00
5996;BME280;3026;53.612;7.278;2024-01-30T10:58:38;102274.47;;;9.87;100.00
5996;BME280;3026;53.612;7.278;2024-01-30T11:01:06;102264.00;;;9.92;100.00
5996;BME280;3026;53.612;7.278;2024-01-30T11:03:34;102267.22;;;9.98;100.00
5996;BME280;3026;53.612;7.278;2024-01-30T11:06:03;102267.66;;;10.03;100.00
5996;BME280;3026;53.612;7.278;2024-01-30T11:08:32;102273.59;;;10.08;100.00
5996;BME280;3026;53.612;7.278;2024-01-30T11:11:01;102272.16;;;10.13;100.00
5996;BME280;3026;53.612;7.278;2024-01-30T11:13:29;102263.56;;;10.18;100.00
5996;BME280;3026;53.612;7.278;2024-01-30T11:16:00;102266.19;;;10.19;100.00
5996;BME280;3026;53.612;7.278;2024-01-30T11:18:29;102261.34;;;10.23;100.00
5996;BME280;3026;53.612;7.278;2024-01-30T11:20:57;102255.63;;;10.26;100.00
5996;BME280;3026;53.612;7.278;2024-01-30T11:23:27;102253.47;;;10.30;100.00
5996;BME280;3026;53.612;7.278;2024-01-30T11:25:56;102249.63;;;10.32;100.00
5996;BME280;3026;53.612;7.278;2024-01-30T11:28:32;102245.91;;;10.33;100.00
5996;BME280;3026;53.612;7.278;2024-01-30T11:31:04;102262.28;;;10.33;100.00
5996;BME280;3026;53.612;7.278;2024-01-30T11:33:32;102258.53;;;10.34;100.00
5996;BME280;3026;53.612;7.278;2024-01-30T11:36:00;102247.63;;;10.34;100.00
5996;BME280;3026;53.612;7.278;2024-01-30T11:38:28;102251.09;;;10.36;100.00
5996;BME280;3026;53.612;7.278;2024-01-30T11:40:55;102247.34;;;10.37;100.00
5996;BME280;3026;53.612;7.278;2024-01-30T11:43:30;102249.06;;;10.38;100.00
5996;BME280;3026;53.612;7.278;2024-01-30T11:45:59;102250.78;;;10.39;100.00
5996;BME280;3026;53.612;7.278;2024-01-30T11:48:26;102259.69;;;10.41;100.00
5996;BME280;3026;53.612;7.278;2024-01-30T11:50:54;102249.69;;;10.42;100.00
5996;BME280;3026;53.612;7.278;2024-01-30T11:53:24;102253.28;;;10.42;100.00
5996;BME280;3026;53.612;7.278;2024-01-30T11:55:53;102245.97;;;10.43;100.00
5996;BME280;3026;53.612;7.278;2024-01-30T11:58:26;102247.81;;;10.42;100.00
5996;BME280;3026;53.612;7.278;2024-01-30T12:00:54;102256.94;;;10.72;100.00
5996;BME280;3026;53.612;7.278;2024-01-30T12:03:23;102253.31;;;10.62;100.00
5996;BME280;3026;53.612;7.278;2024-01-30T12:05:55;102250.88;;;10.59;100.00
5996;BME280;3026;53.612;7.278;2024-01-30T12:08:23;102251.41;;;10.52;100.00
5996;BME280;3026;53.612;7.278;2024-01-30T12:10:56;102256.56;;;10.46;100.00
5996;BME280;3026;53.612;7.278;2024-01-30T12:13:25;102270.59;;;10.41;100.00
5996;BME280;3026;53.612;7.278;2024-01-30T12:15:52;102264.84;;;10.35;100.00
5996;BME280;3026;53.612;7.278;2024-01-30T12:18:21;102261.78;;;10.28;100.00
5996;BME280;3026;53.612;7.278;2024-01-30T12:20:58;102256.91;;;10.22;100.00
5996;BME280;3026;53.612;7.278;2024-01-30T12:23:26;102269.31;;;10.15;100.00
5996;BME280;3026;53.612;7.278;2024-01-30T12:26:01;102268.59;;;10.13;100.00
5996;BME280;3026;53.612;7.278;2024-01-30T12:28:31;102254.38;;;10.09;100.00
5996;BME280;3026;53.612;7.278;2024-01-30T12:31:01;102272.72;;;10.07;100.00
5996;BME280;3026;53.612;7.278;2024-01-30T12:33:30;102274.69;;;10.05;100.00
5996;BME280;3026;53.612;7.278;2024-01-30T12:35:57;102259.47;;;10.03;100.00
5996;BME280;3026;53.612;7.278;2024-01-30T12:38:28;102276.97;;;10.00;100.00
5996;BME280;3026;53.612;7.278;2024-01-30T12:40:55;102275.38;;;9.98;100.00
5996;BME280;3026;53.612;7.278;2024-01-30T12:43:25;102273.66;;;9.97;100.00
5996;BME280;3026;53.612;7.278;2024-01-30T12:45:55;102268.22;;;9.97;100.00
5996;BME280;3026;53.612;7.278;2024-01-30T12:48:22;102268.47;;;9.93;100.00
5996;BME280;3026;53.612;7.278;2024-01-30T12:50:49;102265.72;;;9.93;100.00
5996;BME280;3026;53.612;7.278;2024-01-30T12:53:17;102271.47;;;9.90;100.00
5996;BME280;3026;53.612;7.278;2024-01-30T12:55:44;102272.59;;;9.88;100.00
5996;BME280;3026;53.612;7.278;2024-01-30T12:58:15;102271.13;;;9.84;100.00
5996;BME280;3026;53.612;7.278;2024-01-30T13:00:42;102261.34;;;9.81;100.00
5996;BME280;3026;53.612;7.278;2024-01-30T13:03:12;102270.53;;;9.80;100.00
5996;BME280;3026;53.612;7.278;2024-01-30T13:05:39;102266.06;;;9.79;100.00
5996;BME280;3026;53.612;7.278;2024-01-30T13:08:08;102257.03;;;9.79;100.00
5996;BME280;3026;53.612;7.278;2024-01-30T13:10:35;102257.91;;;9.79;100.00
5996;BME280;3026;53.612;7.278;2024-01-30T13:13:03;102265.06;;;9.80;100.00
5996;BME280;3026;53.612;7.278;2024-01-30T13:15:30;102266.81;;;9.81;100.00